Time;durP1;ratioP1;P1;durP2;ratioP2;P2;SDS_P1;SDS_P2;PMS_P1;PMS_P2;Temp;Humidity;BMP_temperature;BMP_pressure;BME280_temperature;BME280_humidity;BME280_pressure;Samples;Min_cycle;Max_cycle;Signal;HPM_P1;HPM_P2
2021/12/08 00:00:12;;;;;;;22.10;7.88;;;;;;;3.47;100.00;99055.28;5122809;27;20098;-70
2021/12/08 00:02:38;;;;;;;21.52;7.60;;;;;;;3.49;100.00;99061.38;5124398;27;20146;-71
2021/12/08 00:05:05;;;;;;;21.42;7.68;;;;;;;3.51;100.00;99050.94;5122405;27;20106;-70
2021/12/08 00:07:32;;;;;;;23.13;7.85;;;;;;;3.52;100.00;99045.72;5124989;27;20025;-70
2021/12/08 00:10:12;;;;;;;23.80;8.48;;;;;;;3.56;100.00;99049.22;5122049;27;20033;-69
2021/12/08 00:15:21;;;;;;;22.65;8.10;;;;;;;3.63;100.00;99035.31;5122258;27;20084;-69
2021/12/08 00:17:47;;;;;;;23.75;7.90;;;;;;;3.67;100.00;99037.09;5124280;27;20027;-74
2021/12/08 00:20:12;;;;;;;24.13;8.57;;;;;;;3.70;100.00;99036.19;5123413;27;20135;-67
2021/12/08 00:22:37;;;;;;;22.98;8.20;;;;;;;3.72;100.00;99027.50;5122861;27;20401;-67
2021/12/08 00:25:03;;;;;;;23.02;8.43;;;;;;;3.82;100.00;99029.28;5124366;27;20405;-67
2021/12/08 00:27:29;;;;;;;23.40;8.65;;;;;;;3.82;100.00;99034.50;5120732;28;20108;-67
2021/12/08 00:29:54;;;;;;;21.95;8.15;;;;;;;3.86;100.00;99044.97;5116669;28;20466;-70
2021/12/08 00:32:25;;;;;;;22.77;8.20;;;;;;;3.90;100.00;99050.19;5123591;28;20031;-69
2021/12/08 00:34:50;;;;;;;21.10;7.45;;;;;;;4.00;100.00;99052.00;5119821;28;20034;-81
2021/12/08 00:37:16;;;;;;;20.77;7.40;;;;;;;4.01;100.00;99050.25;5123286;28;20398;-79
2021/12/08 00:39:41;;;;;;;20.45;7.47;;;;;;;4.06;100.00;99039.78;5122226;28;20042;-77
2021/12/08 00:42:06;;;;;;;21.33;7.43;;;;;;;4.08;100.00;99038.03;5121903;28;20031;-77
2021/12/08 00:44:32;;;;;;;20.27;7.15;;;;;;;4.10;100.00;99037.19;5123626;28;20019;-78
2021/12/08 00:46:57;;;;;;;21.40;7.05;;;;;;;4.10;100.00;99029.34;5121591;28;20038;-67
2021/12/08 00:49:22;;;;;;;21.00;6.68;;;;;;;4.10;100.00;99041.56;5125161;28;20041;-68
2021/12/08 00:51:48;;;;;;;21.60;6.90;;;;;;;4.14;100.00;99043.31;5122294;28;20107;-67
2021/12/08 00:54:13;;;;;;;19.80;6.32;;;;;;;4.15;100.00;99051.16;5123539;28;20063;-68
2021/12/08 00:56:39;;;;;;;21.15;6.25;;;;;;;4.16;100.00;99042.41;5123935;28;20031;-68
2021/12/08 00:59:04;;;;;;;20.77;6.30;;;;;;;4.17;100.00;99046.78;5121773;28;20442;-67
2021/12/08 01:01:30;;;;;;;21.15;6.35;;;;;;;4.24;100.00;99067.72;5132234;28;20007;-68
2021/12/08 01:03:55;;;;;;;19.95;6.10;;;;;;;4.26;100.00;99068.59;5140347;28;20027;-67
2021/12/08 01:06:21;;;;;;;19.02;5.72;;;;;;;4.30;100.00;99067.75;5142542;28;20027;-68
2021/12/08 01:08:46;;;;;;;19.08;5.38;;;;;;;4.36;100.00;99086.06;5139732;28;20019;-68
2021/12/08 01:11:17;;;;;;;17.13;5.15;;;;;;;4.39;100.00;99095.66;5139866;28;20069;-68
2021/12/08 01:13:43;;;;;;;19.25;5.53;;;;;;;4.34;100.00;99077.34;5139471;28;20078;-68
2021/12/08 01:16:09;;;;;;;19.73;5.53;;;;;;;4.40;100.00;99087.81;5140868;28;20023;-68
2021/12/08 01:18:35;;;;;;;18.60;4.90;;;;;;;4.58;100.00;99088.72;5140420;28;20058;-68
2021/12/08 01:21:04;;;;;;;18.10;5.28;;;;;;;4.61;100.00;99086.94;5121186;28;20024;-67
2021/12/08 01:23:29;;;;;;;18.70;5.70;;;;;;;4.57;100.00;99100.03;5123877;28;20027;-68
2021/12/08 01:25:55;;;;;;;17.58;4.93;;;;;;;4.62;100.00;99098.31;5079007;28;1184744;-68
2021/12/08 01:28:22;;;;;;;17.77;5.53;;;;;;;4.56;100.00;99091.31;5124266;28;20023;-67
2021/12/08 01:30:49;;;;;;;19.23;5.40;;;;;;;4.59;100.00;99088.69;5121915;28;20047;-68
2021/12/08 01:33:16;;;;;;;19.27;5.50;;;;;;;4.61;100.00;99097.41;5123293;28;20022;-67
2021/12/08 01:35:41;;;;;;;20.52;5.55;;;;;;;4.63;100.00;99094.81;5122985;28;20103;-69
2021/12/08 01:38:07;;;;;;;20.23;5.88;;;;;;;4.66;100.00;99100.03;5122012;28;20106;-68
2021/12/08 01:40:32;;;;;;;20.00;5.82;;;;;;;4.63;100.00;99100.94;5124077;28;20223;-67
2021/12/08 01:43:00;;;;;;;19.83;5.80;;;;;;;4.62;100.00;99101.78;5120870;28;20098;-67
2021/12/08 01:48:15;;;;;;;20.00;5.57;;;;;;;4.62;100.00;99108.78;5124901;27;20038;-67
2021/12/08 01:50:43;;;;;;;20.95;5.80;;;;;;;4.58;100.00;99110.50;5126664;27;20455;-67
2021/12/08 01:53:09;;;;;;;21.92;6.22;;;;;;;4.57;100.00;99103.50;5125356;27;20023;-68
2021/12/08 01:55:37;;;;;;;22.38;5.90;;;;;;;4.64;100.00;99117.50;5127097;27;20031;-67
2021/12/08 01:58:07;;;;;;;20.77;6.25;;;;;;;4.60;100.00;99114.03;5124856;27;20050;-66
2021/12/08 02:00:41;;;;;;;20.80;5.82;;;;;;;4.59;100.00;99116.59;5127451;27;20079;-67
2021/12/08 02:03:07;;;;;;;21.52;5.35;;;;;;;4.61;100.00;99122.72;5125212;27;20020;-68
2021/12/08 02:05:33;;;;;;;21.15;5.80;;;;;;;4.59;100.00;99119.22;5127354;27;20547;-67
2021/12/08 02:07:59;;;;;;;21.75;5.35;;;;;;;4.69;100.00;99134.09;5124440;27;20099;-67
2021/12/08 02:10:26;;;;;;;20.95;5.47;;;;;;;4.66;100.00;99120.97;5127377;27;20042;-68
2021/12/08 02:12:52;;;;;;;23.55;5.85;;;;;;;4.62;100.00;99142.81;5124795;27;20459;-67
2021/12/08 02:15:19;;;;;;;23.88;5.55;;;;;;;4.70;100.00;99130.56;5126436;27;20028;-66
2021/12/08 02:17:48;;;;;;;22.98;5.70;;;;;;;4.65;100.00;99138.44;5106961;27;20030;-66
2021/12/08 02:20:16;;;;;;;22.17;5.60;;;;;;;4.70;100.00;99148.91;5126185;27;20031;-66
2021/12/08 02:22:42;;;;;;;18.85;5.65;;;;;;;4.75;100.00;99144.56;5125871;27;20027;-67
2021/12/08 02:25:11;;;;;;;20.35;5.25;;;;;;;4.69;100.00;99149.78;5124592;27;20127;-69
2021/12/08 02:27:36;;;;;;;20.92;5.60;;;;;;;4.71;100.00;99158.50;5126429;27;20076;-68
2021/12/08 02:30:17;;;;;;;20.02;5.20;;;;;;;4.71;100.00;99158.50;5123994;27;20023;-67
2021/12/08 02:48:52;;;;;;;21.13;5.00;;;;;;;4.44;100.00;99146.25;5124314;27;20123;-67
2021/12/08 02:51:19;;;;;;;20.35;5.10;;;;;;;4.37;100.00;99161.06;5125726;27;20059;-68
2021/12/08 02:53:44;;;;;;;21.33;4.97;;;;;;;4.33;100.00;99164.53;5124715;27;20053;-69
2021/12/08 02:56:10;;;;;;;19.85;4.82;;;;;;;4.44;100.00;99173.31;5123604;27;20533;-69
2021/12/08 02:58:35;;;;;;;21.33;4.90;;;;;;;4.39;100.00;99167.16;5126259;27;20046;-69
2021/12/08 03:01:04;;;;;;;19.02;4.80;;;;;;;4.45;100.00;99174.16;5123101;27;20359;-69
2021/12/08 03:03:29;;;;;;;19.67;5.03;;;;;;;4.50;100.00;99157.63;5119334;27;20024;-69
2021/12/08 03:05:55;;;;;;;22.33;5.03;;;;;;;4.51;100.00;99164.59;5126691;27;20158;-69
2021/12/08 03:08:20;;;;;;;20.80;4.85;;;;;;;4.50;100.00;99162.84;5123550;27;20035;-69
2021/12/08 03:10:49;;;;;;;21.80;4.80;;;;;;;4.48;100.00;99169.81;5106494;27;20036;-69
2021/12/08 03:13:15;;;;;;;19.60;4.93;;;;;;;4.49;100.00;99165.47;5124622;27;20098;-69
2021/12/08 03:15:42;;;;;;;21.42;5.25;;;;;;;4.52;100.00;99166.31;5124336;27;20038;-69
2021/12/08 03:18:08;;;;;;;19.92;4.97;;;;;;;4.49;100.00;99175.94;5125251;27;20422;-69
2021/12/08 03:20:43;;;;;;;22.30;4.80;;;;;;;4.58;100.00;99177.69;5123204;27;20497;-69
2021/12/08 03:23:12;;;;;;;19.77;4.72;;;;;;;4.56;100.00;99180.31;5125061;27;20412;-71
2021/12/08 03:25:41;;;;;;;19.58;4.53;;;;;;;4.56;100.00;99189.88;5123112;27;20491;-69
2021/12/08 03:28:21;;;;;;;19.40;4.70;;;;;;;4.54;100.00;99193.41;5125153;27;20028;-72
2021/12/08 03:31:06;;;;;;;19.50;4.40;;;;;;;4.55;100.00;99194.25;5125031;27;20031;-70
2021/12/08 03:33:32;;;;;;;20.48;4.38;;;;;;;4.52;100.00;99192.50;5119362;27;20112;-70
2021/12/08 03:35:59;;;;;;;20.08;4.38;;;;;;;4.49;100.00;99196.88;5125679;27;20110;-75
2021/12/08 03:38:25;;;;;;;20.52;4.60;;;;;;;4.44;100.00;99189.00;5122459;27;20062;-72
2021/12/08 03:40:52;;;;;;;20.50;4.40;;;;;;;4.35;100.00;99192.47;5125174;27;20027;-74
2021/12/08 03:43:18;;;;;;;23.17;4.43;;;;;;;4.34;100.00;99195.09;5123396;27;20031;-69
2021/12/08 03:45:48;;;;;;;22.35;4.30;;;;;;;4.24;100.00;99190.66;5123926;27;20031;-75
2021/12/08 03:48:26;;;;;;;19.17;4.30;;;;;;;4.14;100.00;99180.16;5124107;27;20023;-72
2021/12/08 03:50:53;;;;;;;19.33;4.15;;;;;;;4.05;100.00;99190.59;5125463;27;20054;-68
2021/12/08 03:53:19;;;;;;;21.27;4.10;;;;;;;4.09;100.00;99196.72;5123015;27;20047;-73
2021/12/08 03:55:47;;;;;;;18.77;3.78;;;;;;;4.06;100.00;99202.78;5123796;27;20062;-69
2021/12/08 03:58:14;;;;;;;20.08;4.43;;;;;;;4.06;100.00;99205.41;5124222;27;20019;-72
2021/12/08 04:00:41;;;;;;;18.48;3.80;;;;;;;4.13;100.00;99203.69;5123052;27;20028;-72
2021/12/08 04:03:08;;;;;;;20.70;4.22;;;;;;;3.98;100.00;99209.75;5124658;27;20381;-72
2021/12/08 04:05:52;;;;;;;20.95;4.05;;;;;;;3.91;100.00;99207.97;5122136;27;20027;-73
2021/12/08 04:08:27;;;;;;;21.60;4.38;;;;;;;3.89;100.00;99220.13;5123009;27;20015;-69
2021/12/08 04:10:53;;;;;;;19.02;3.90;;;;;;;3.76;100.00;99208.75;5125353;27;20034;-72
2021/12/08 04:13:24;;;;;;;18.40;4.20;;;;;;;3.82;100.00;99217.50;5122636;27;20023;-71
2021/12/08 04:15:50;;;;;;;18.20;4.07;;;;;;;3.74;100.00;99213.97;5124174;27;20092;-71
2021/12/08 04:18:15;;;;;;;21.48;4.20;;;;;;;3.71;100.00;99210.47;5123292;27;20474;-69
2021/12/08 04:20:51;;;;;;;20.60;4.45;;;;;;;3.65;100.00;99211.28;5123048;27;20038;-70
2021/12/08 04:23:18;;;;;;;19.60;4.18;;;;;;;3.63;100.00;99232.19;5123073;27;20027;-71
2021/12/08 04:25:50;;;;;;;20.10;4.30;;;;;;;3.62;100.00;99229.56;5123339;27;20092;-70
2021/12/08 04:28:21;;;;;;;19.50;4.45;;;;;;;3.59;100.00;99226.94;5123292;27;20445;-71
2021/12/08 04:30:57;;;;;;;19.60;4.40;;;;;;;3.59;100.00;99232.16;5123345;27;20031;-70
2021/12/08 04:33:23;;;;;;;18.73;4.32;;;;;;;3.58;100.00;99233.91;5122085;28;20103;-69
2021/12/08 04:35:53;;;;;;;20.30;4.13;;;;;;;3.62;100.00;99245.25;5123987;28;20102;-69
2021/12/08 04:38:26;;;;;;;20.00;4.45;;;;;;;3.60;100.00;99228.69;5122660;28;20118;-69
2021/12/08 04:41:02;;;;;;;21.00;4.10;;;;;;;3.59;100.00;99232.16;5124108;28;20060;-71
2021/12/08 04:43:38;;;;;;;19.75;3.75;;;;;;;3.71;100.00;99232.22;5117634;28;20030;-69
2021/12/08 04:46:23;;;;;;;18.83;3.42;;;;;;;3.73;100.00;99225.28;5118335;28;20481;-72
2021/12/08 04:51:38;;;;;;;19.27;3.83;;;;;;;3.63;100.00;99223.50;5124079;28;20050;-70
2021/12/08 05:02:44;;;;;;;20.08;3.80;;;;;;;3.48;100.00;99256.47;5122218;28;20047;-69
2021/12/08 05:07:55;;;;;;;18.90;3.65;;;;;;;3.42;100.00;99248.59;5124264;28;20028;-69
2021/12/08 05:10:29;;;;;;;19.63;3.75;;;;;;;3.47;100.00;99262.56;5123879;28;20027;-69
2021/12/08 05:12:56;;;;;;;22.35;3.47;;;;;;;3.57;100.00;99257.41;5121534;28;20039;-69
2021/12/08 05:15:26;;;;;;;20.45;3.30;;;;;;;3.68;100.00;99263.56;5123785;28;20118;-70
2021/12/08 05:18:16;;;;;;;20.77;3.45;;;;;;;3.86;100.00;99267.19;5103247;28;20040;-69
2021/12/08 05:20:45;;;;;;;19.67;3.35;;;;;;;3.92;100.00;99255.03;5123021;27;20153;-69
2021/12/08 05:23:22;;;;;;;17.15;3.10;;;;;;;3.96;100.00;99263.75;5127482;27;20027;-69
2021/12/08 05:25:49;;;;;;;18.05;3.13;;;;;;;3.95;100.00;99262.03;5127011;27;20132;-69
2021/12/08 05:28:18;;;;;;;19.95;3.50;;;;;;;3.99;100.00;99263.78;5126969;27;20032;-69
2021/12/08 05:30:50;;;;;;;16.70;3.45;;;;;;;3.93;100.00;99266.34;5126528;27;20023;-69
2021/12/08 05:33:16;;;;;;;21.20;3.37;;;;;;;3.92;100.00;99262.00;5137103;27;20031;-69
2021/12/08 05:35:43;;;;;;;18.02;3.42;;;;;;;3.81;100.00;99260.19;5145790;27;20103;-69
2021/12/08 05:38:09;;;;;;;18.92;3.22;;;;;;;3.71;100.00;99260.13;5148016;27;20023;-69
2021/12/08 05:40:58;;;;;;;17.88;3.20;;;;;;;3.88;100.00;99275.94;5144413;27;20026;-69
2021/12/08 05:43:24;;;;;;;19.50;3.40;;;;;;;3.81;100.00;99275.00;5144220;27;20440;-69
2021/12/08 05:45:51;;;;;;;21.30;3.30;;;;;;;3.82;100.00;99284.59;5145531;27;20027;-70
2021/12/08 05:48:17;;;;;;;21.02;3.72;;;;;;;3.88;100.00;99283.78;5132753;27;20037;-69
2021/12/08 05:50:51;;;;;;;18.55;3.50;;;;;;;4.04;100.00;99283.00;5126018;27;20023;-69
2021/12/08 05:53:17;;;;;;;19.85;3.75;;;;;;;4.02;100.00;99289.97;5126122;27;20051;-69
2021/12/08 05:55:44;;;;;;;20.85;3.50;;;;;;;4.07;100.00;99288.25;5125871;27;20098;-69
2021/12/08 05:58:12;;;;;;;23.35;3.58;;;;;;;3.94;100.00;99281.19;5127088;27;20027;-69
2021/12/08 06:00:51;;;;;;;20.98;3.53;;;;;;;3.92;100.00;99270.72;5124912;27;20019;-69
2021/12/08 06:03:18;;;;;;;19.95;3.30;;;;;;;3.93;100.00;99287.28;5125783;27;20027;-69
2021/12/08 06:05:47;;;;;;;20.27;3.45;;;;;;;3.86;100.00;99299.44;5125851;27;20032;-69
2021/12/08 06:08:13;;;;;;;21.90;3.83;;;;;;;3.82;100.00;99298.53;5126389;27;20134;-69
2021/12/08 06:10:39;;;;;;;22.13;3.72;;;;;;;3.80;100.00;99307.22;5125143;27;20502;-69
2021/12/08 06:13:07;;;;;;;21.73;3.70;;;;;;;3.78;100.00;99299.38;5127233;27;20110;-70
2021/12/08 06:15:34;;;;;;;21.10;3.55;;;;;;;3.77;100.00;99304.59;5124287;27;20034;-69
2021/12/08 06:17:59;;;;;;;21.95;3.92;;;;;;;3.79;100.00;99302.88;5119838;27;20030;-69
2021/12/08 06:20:26;;;;;;;24.00;4.47;;;;;;;3.73;100.00;99303.72;5127114;27;20023;-71
2021/12/08 06:22:53;;;;;;;20.83;3.90;;;;;;;3.74;100.00;99325.47;5125067;27;20020;-69
2021/12/08 06:25:20;;;;;;;22.88;3.92;;;;;;;3.85;100.00;99326.44;5126070;27;20410;-69
2021/12/08 06:27:46;;;;;;;20.52;3.80;;;;;;;3.93;100.00;99316.03;5125418;27;20038;-71
2021/12/08 06:30:16;;;;;;;20.40;3.78;;;;;;;3.81;100.00;99322.91;5125248;27;20030;-77
2021/12/08 06:32:41;;;;;;;22.80;3.90;;;;;;;3.86;100.00;99328.22;5125912;27;20019;-80
2021/12/08 06:35:11;;;;;;;21.92;3.92;;;;;;;3.87;100.00;99332.56;5124153;27;20038;-72
2021/12/08 06:37:39;;;;;;;22.08;3.55;;;;;;;3.88;100.00;99333.44;5119113;27;20046;-70
2021/12/08 06:40:07;;;;;;;18.63;3.60;;;;;;;3.91;100.00;99329.09;5117981;27;20390;-73
2021/12/08 06:42:36;;;;;;;21.00;3.90;;;;;;;3.90;100.00;99332.56;5118636;27;20036;-76
2021/12/08 06:45:11;;;;;;;21.60;4.07;;;;;;;3.74;100.00;99329.00;5117039;27;20070;-75
2021/12/08 06:47:36;;;;;;;23.38;4.22;;;;;;;3.64;100.00;99325.41;5119948;27;20034;-75
2021/12/08 06:50:11;;;;;;;19.67;3.75;;;;;;;3.64;100.00;99319.28;5118550;27;20027;-76
2021/12/08 06:52:38;;;;;;;20.20;3.67;;;;;;;3.49;100.00;99325.28;5116471;27;20020;-73
2021/12/08 06:55:10;;;;;;;22.10;3.85;;;;;;;3.51;100.00;99339.25;5117727;27;20417;-68
2021/12/08 06:57:59;;;;;;;20.77;3.75;;;;;;;3.54;100.00;99333.16;5118116;27;20043;-69
2021/12/08 07:00:57;;;;;;;23.08;3.88;;;;;;;3.52;100.00;99334.88;5115977;27;20024;-69
2021/12/08 07:04:11;;;;;;;21.52;4.30;;;;;;;3.38;100.00;99333.03;5117850;27;20032;-69
2021/12/08 07:06:47;;;;;;;20.58;3.85;;;;;;;3.38;100.00;99343.47;5111900;27;20040;-72
2021/12/08 07:09:31;;;;;;;20.63;3.80;;;;;;;3.41;100.00;99342.66;5115680;27;20391;-71
2021/12/08 07:12:04;;;;;;;22.20;4.13;;;;;;;3.39;100.00;99353.06;5114620;27;20066;-69
2021/12/08 07:14:31;;;;;;;;;;;;;;;3.42;100.00;99358.34;5119412;27;20569;-72
2021/12/08 07:17:02;;;;;;;20.45;3.70;;;;;;;3.29;100.00;99359.94;5116679;27;19911;-68
2021/12/08 07:19:45;;;;;;;22.80;3.85;;;;;;;3.29;100.00;99370.38;5114476;27;20023;-67
2021/12/08 07:22:16;;;;;;;19.58;3.60;;;;;;;3.19;100.00;99365.94;5114325;27;20034;-68
2021/12/08 07:24:43;;;;;;;19.40;3.53;;;;;;;3.24;100.00;99377.28;5118504;27;20024;-71
2021/12/08 07:27:15;;;;;;;20.05;3.63;;;;;;;3.28;100.00;99389.53;5111746;28;20418;-70
2021/12/08 07:29:42;;;;;;;19.65;3.67;;;;;;;3.26;100.00;99390.38;5114967;27;20030;-70
2021/12/08 07:32:12;;;;;;;25.00;4.15;;;;;;;3.13;100.00;99390.25;5114096;27;20106;-68
2021/12/08 07:34:37;;;;;;;23.67;4.70;;;;;;;3.07;100.00;99394.50;5114080;27;20028;-68
2021/12/08 07:37:11;;;;;;;20.67;3.97;;;;;;;3.00;100.00;99388.34;5116937;27;20096;-69
2021/12/08 07:39:43;;;;;;;21.17;4.13;;;;;;;3.05;100.00;99412.75;5116961;27;20034;-68
2021/12/08 07:42:17;;;;;;;20.92;4.10;;;;;;;3.15;100.00;99424.22;5118245;27;20027;-68
2021/12/08 07:44:44;;;;;;;21.85;3.90;;;;;;;3.14;100.00;99412.88;5117136;27;20076;-69
2021/12/08 07:47:12;;;;;;;21.63;3.78;;;;;;;3.24;100.00;99415.59;5115191;27;20032;-68
2021/12/08 07:49:46;;;;;;;21.38;4.22;;;;;;;3.33;100.00;99427.88;5115366;27;20019;-69
2021/12/08 07:52:17;;;;;;;19.85;3.95;;;;;;;3.33;100.00;99426.13;5116753;27;20030;-69
2021/12/08 07:54:42;;;;;;;22.80;4.32;;;;;;;3.37;100.00;99425.31;5115860;27;20612;-70
2021/12/08 07:57:17;;;;;;;20.48;3.60;;;;;;;3.43;100.00;99429.75;5113585;27;20016;-68
2021/12/08 07:59:47;;;;;;;21.17;3.80;;;;;;;3.42;100.00;99434.09;5112119;27;20088;-68
2021/12/08 08:02:12;;;;;;;24.02;4.85;;;;;;;3.41;100.00;99424.50;5111742;28;20089;-68
2021/12/08 08:04:48;;;;;;;19.98;3.47;;;;;;;3.47;100.00;99421.94;5118765;27;20588;-69
2021/12/08 08:07:15;;;;;;;20.58;3.58;;;;;;;3.48;100.00;99418.47;5112829;27;20055;-69
2021/12/08 08:09:45;;;;;;;19.10;3.70;;;;;;;3.61;100.00;99434.25;5117480;27;20067;-74
2021/12/08 08:12:15;;;;;;;20.67;3.60;;;;;;;3.65;100.00;99430.81;5113360;28;20031;-69
2021/12/08 08:14:48;;;;;;;21.20;3.88;;;;;;;3.70;100.00;99430.88;5114305;27;20042;-68
2021/12/08 08:17:17;;;;;;;22.67;3.90;;;;;;;3.64;100.00;99432.56;5116043;27;20055;-69
2021/12/08 08:19:45;;;;;;;21.33;3.80;;;;;;;3.72;100.00;99443.09;5115014;27;20059;-69
2021/12/08 08:22:31;;;;;;;16.42;3.42;;;;;;;3.71;100.00;99436.09;5116534;27;20027;-68
2021/12/08 08:25:00;;;;;;;19.58;3.92;;;;;;;3.66;100.00;99427.38;5115900;27;20096;-68
2021/12/08 08:27:27;;;;;;;19.10;3.72;;;;;;;3.75;100.00;99431.81;5114698;28;20028;-69
2021/12/08 08:29:55;;;;;;;19.95;3.40;;;;;;;3.78;100.00;99440.53;5113570;27;20015;-70
2021/12/08 08:32:27;;;;;;;19.70;4.13;;;;;;;3.84;100.00;99435.38;5113697;28;20024;-69
2021/12/08 08:34:58;;;;;;;20.33;4.10;;;;;;;3.87;100.00;99444.97;5111883;28;20043;-69
2021/12/08 08:37:23;;;;;;;21.02;4.00;;;;;;;3.86;100.00;99424.03;5109247;28;20088;-70
2021/12/08 08:39:54;;;;;;;20.55;3.80;;;;;;;3.82;100.00;99410.09;5115038;28;20466;-69
2021/12/08 08:42:25;;;;;;;20.15;3.65;;;;;;;3.92;100.00;99409.31;5111356;28;20032;-69
2021/12/08 08:45:14;;;;;;;19.33;3.70;;;;;;;3.94;100.00;99411.94;5114669;28;20023;-69
2021/12/08 08:47:45;;;;;;;18.92;3.78;;;;;;;3.99;100.00;99400.66;5113489;28;20042;-69
2021/12/08 08:50:16;;;;;;;17.52;3.70;;;;;;;3.99;100.00;99402.38;5116018;28;20023;-69
2021/12/08 08:52:46;;;;;;;17.67;3.60;;;;;;;4.06;99.72;99406.78;5117481;28;20089;-69
2021/12/08 08:55:30;;;;;;;19.42;3.90;;;;;;;4.04;100.00;99400.69;5118898;27;20072;-70
2021/12/08 08:58:17;;;;;;;20.92;3.97;;;;;;;4.11;99.29;99418.16;5121661;27;20038;-70
2021/12/08 09:00:53;;;;;;;18.40;4.00;;;;;;;4.07;98.46;99420.75;5078716;28;20044;-70
2021/12/08 09:03:23;;;;;;;14.07;3.65;;;;;;;4.11;98.00;99426.00;5077976;28;20599;-69
2021/12/08 09:05:59;;;;;;;19.60;3.83;;;;;;;4.24;96.97;99415.63;5082210;28;20064;-69
2021/12/08 09:08:28;;;;;;;21.70;4.07;;;;;;;4.10;97.97;99426.88;5083560;28;20434;-69
2021/12/08 09:11:01;;;;;;;14.98;3.50;;;;;;;4.09;98.23;99422.53;5083660;28;20075;-69
2021/12/08 09:13:38;;;;;;;19.55;3.80;;;;;;;4.22;96.39;99431.31;5083268;28;20147;-69
2021/12/08 09:16:09;;;;;;;19.80;3.70;;;;;;;4.25;96.06;99422.63;5084922;28;20044;-69
2021/12/08 09:18:46;;;;;;;16.63;3.70;;;;;;;4.24;95.22;99429.59;5082318;28;20037;-69
2021/12/08 09:21:54;;;;;;;19.65;3.67;;;;;;;4.29;95.61;99437.47;5078647;28;20052;-69
2021/12/08 09:24:38;;;;;;;19.30;3.60;;;;;;;4.46;95.00;99437.63;5080922;28;20056;-69
2021/12/08 09:27:08;;;;;;;18.90;3.70;;;;;;;4.51;93.52;99442.03;5082368;28;20040;-69
2021/12/08 09:29:48;;;;;;;18.38;3.50;;;;;;;4.46;93.53;99446.31;5084716;28;20036;-69
2021/12/08 09:32:31;;;;;;;19.58;3.88;;;;;;;4.44;94.08;99455.94;5110332;27;20036;-69
2021/12/08 09:34:59;;;;;;;16.48;3.30;;;;;;;4.58;92.05;99460.38;5126210;27;20031;-70
2021/12/08 09:37:31;;;;;;;19.00;3.88;;;;;;;4.73;92.70;99465.69;5126638;27;20032;-69
2021/12/08 09:40:06;;;;;;;17.90;3.45;;;;;;;4.97;89.60;99462.34;5119062;27;20041;-69
2021/12/08 09:42:40;;;;;;;18.08;3.60;;;;;;;5.05;90.20;99449.28;5111154;27;20453;-73
2021/12/08 09:45:07;;;;;;;20.58;3.47;;;;;;;5.14;91.57;99457.19;5117371;27;20031;-72
2021/12/08 09:47:33;;;;;;;20.50;3.60;;;;;;;5.24;89.67;99452.84;5116731;27;20027;-74
2021/12/08 09:49:59;;;;;;;18.52;3.45;;;;;;;5.24;87.81;99447.59;5117966;27;20019;-72
2021/12/08 09:52:27;;;;;;;18.00;3.58;;;;;;;5.19;89.05;99447.59;5117946;27;20030;-71
2021/12/08 09:54:59;;;;;;;19.30;3.40;;;;;;;5.38;87.03;99443.28;5119357;27;20091;-71
2021/12/08 09:57:26;;;;;;;21.23;3.80;;;;;;;5.33;88.17;99438.91;5117591;27;20015;-72
2021/12/08 09:59:52;;;;;;;18.67;3.42;;;;;;;5.38;86.53;99437.19;5099408;27;20046;-72
2021/12/08 10:02:27;;;;;;;19.35;3.70;;;;;;;5.38;87.31;99432.81;5119448;27;20026;-71
2021/12/08 10:04:57;;;;;;;17.15;3.30;;;;;;;5.44;87.16;99433.72;5122378;27;20027;-74
2021/12/08 10:07:24;;;;;;;14.43;3.13;;;;;;;5.50;84.36;99436.34;5118273;27;20091;-70
2021/12/08 10:09:50;;;;;;;18.20;3.40;;;;;;;5.57;85.95;99420.63;5116211;27;20043;-69
2021/12/08 10:12:16;;;;;;;18.63;3.35;;;;;;;5.80;84.38;99419.78;5119942;27;20096;-71
2021/12/08 10:14:41;;;;;;;18.50;3.60;;;;;;;5.86;82.70;99424.16;5120055;27;20023;-69
2021/12/08 10:17:07;;;;;;;16.95;3.33;;;;;;;5.89;83.39;99418.91;5126405;27;20030;-71
2021/12/08 10:19:32;;;;;;;16.23;3.47;;;;;;;6.06;81.86;99413.72;5124081;27;20019;-69
2021/12/08 10:21:58;;;;;;;17.75;3.30;;;;;;;6.10;81.68;99407.56;5127250;27;20020;-69
2021/12/08 10:24:29;;;;;;;16.83;3.10;;;;;;;6.33;82.56;99404.94;5124331;27;20032;-71
2021/12/08 10:27:07;;;;;;;16.52;3.28;;;;;;;6.38;79.95;99408.44;5126273;27;20050;-71
2021/12/08 10:29:33;;;;;;;17.15;3.50;;;;;;;6.48;79.46;99397.91;5127199;27;20493;-70
2021/12/08 10:32:02;;;;;;;16.95;3.20;;;;;;;6.84;77.63;99393.44;5125757;27;20027;-70
2021/12/08 10:34:46;;;;;;;15.77;3.55;;;;;;;7.26;76.05;99399.41;5102473;27;20039;-70
2021/12/08 10:37:18;;;;;;;19.67;3.42;;;;;;;7.76;74.87;99392.97;5118501;27;20428;-71
2021/12/08 10:39:46;;;;;;;16.50;3.10;;;;;;;8.14;72.69;99393.50;5117303;27;20027;-70
2021/12/08 10:42:22;;;;;;;17.92;3.30;;;;;;;8.18;72.45;99393.50;5119159;27;20352;-71
2021/12/08 10:45:10;;;;;;;16.60;3.10;;;;;;;8.25;70.83;99385.53;5116744;27;20027;-71
2021/12/08 10:47:45;;;;;;;15.23;3.30;;;;;;;8.36;70.62;99387.19;5126815;27;20382;-70
2021/12/08 10:55:53;;;;;;;16.65;3.47;;;;;;;7.94;70.90;99386.69;5117742;27;20047;-71
2021/12/08 10:58:21;;;;;;;19.48;3.80;;;;;;;7.93;72.13;99390.19;5118787;27;20482;-74
2021/12/08 11:00:47;;;;;;;16.70;3.25;;;;;;;8.11;69.95;99401.44;5116332;27;20038;-72
2021/12/08 11:03:13;;;;;;;18.70;3.40;;;;;;;8.25;69.07;99412.72;5114657;27;20439;-74
2021/12/08 11:05:59;;;;;;;15.98;3.33;;;;;;;8.46;69.90;99409.06;5115875;27;20035;-73
2021/12/08 11:08:27;;;;;;;16.67;3.17;;;;;;;8.97;67.79;99420.81;5116525;27;20482;-72
2021/12/08 11:10:54;;;;;;;14.98;3.10;;;;;;;9.29;66.21;99430.97;5116178;27;20024;-69
2021/12/08 11:13:23;;;;;;;17.02;3.30;;;;;;;9.55;65.45;99429.72;5118612;27;20027;-72
2021/12/08 11:16:04;;;;;;;16.05;3.00;;;;;;;9.22;67.12;99432.81;5114592;27;20038;-73
2021/12/08 11:18:30;;;;;;;16.15;3.30;;;;;;;9.04;66.71;99433.03;5113704;27;20499;-69
2021/12/08 11:21:07;;;;;;;16.95;3.20;;;;;;;8.69;68.71;99447.47;5115264;27;20028;-68
2021/12/08 11:23:42;;;;;;;15.70;3.20;;;;;;;8.19;69.91;99461.03;5114941;27;20026;-68
2021/12/08 11:26:15;;;;;;;15.77;3.50;;;;;;;8.25;69.96;99457.47;5115287;27;20104;-68
2021/12/08 11:28:42;;;;;;;15.88;3.30;;;;;;;8.03;70.56;99447.13;5114774;27;20035;-68
2021/12/08 11:31:15;;;;;;;15.98;3.17;;;;;;;7.76;70.18;99450.84;5118364;27;20017;-68
2021/12/08 11:33:47;;;;;;;19.60;3.80;;;;;;;7.51;70.45;99465.88;5123661;27;20500;-68
2021/12/08 11:36:18;;;;;;;17.65;3.45;;;;;;;7.43;71.69;99471.16;5123863;27;20030;-69
2021/12/08 11:38:47;;;;;;;16.67;3.17;;;;;;;7.25;72.48;99466.88;5123841;27;20088;-69
2021/12/08 11:41:37;;;;;;;15.80;3.30;;;;;;;7.05;73.40;99471.31;5123947;27;20352;-68
2021/12/08 11:44:08;;;;;;;14.52;3.10;;;;;;;6.90;75.04;99465.25;5119642;27;20039;-68
2021/12/08 11:46:38;;;;;;;18.05;3.35;;;;;;;6.73;75.38;99480.16;5125499;27;20486;-68
2021/12/08 11:49:07;;;;;;;19.02;3.83;;;;;;;6.83;77.23;99486.25;5122672;27;20031;-68
2021/12/08 11:51:35;;;;;;;15.63;3.50;;;;;;;7.00;76.27;99483.59;5125167;27;20026;-69
2021/12/08 11:54:01;;;;;;;16.73;3.55;;;;;;;6.95;75.12;99489.75;5122538;27;20032;-68
2021/12/08 11:56:44;;;;;;;16.08;3.75;;;;;;;6.77;76.10;99489.75;5125811;27;20027;-68
2021/12/08 11:59:10;;;;;;;15.23;3.47;;;;;;;6.61;77.36;99495.06;5139996;27;20004;-67
2021/12/08 12:01:37;;;;;;;17.42;3.67;;;;;;;6.63;76.42;99501.16;5106714;27;20031;-69
2021/12/08 12:04:05;;;;;;;16.73;3.40;;;;;;;7.04;74.13;99501.97;5122721;27;20019;-67
2021/12/08 12:06:33;;;;;;;17.40;3.50;;;;;;;8.15;71.07;99508.47;5125627;27;20092;-68
2021/12/08 12:08:59;;;;;;;14.18;3.03;;;;;;;7.83;70.92;99509.53;5122107;27;20355;-68
2021/12/08 12:11:26;;;;;;;15.93;3.53;;;;;;;7.33;72.74;99520.28;5125342;27;20046;-67
2021/12/08 12:13:54;;;;;;;16.20;3.25;;;;;;;7.01;73.93;99514.25;5122452;27;20031;-68
2021/12/08 12:16:20;;;;;;;17.27;3.63;;;;;;;6.76;73.50;99519.56;5124395;27;20023;-68
2021/12/08 12:18:46;;;;;;;15.75;3.50;;;;;;;6.55;74.52;99521.31;5123227;27;20030;-68
2021/12/08 12:21:24;;;;;;;16.77;3.45;;;;;;;6.33;76.31;99545.81;5123479;27;20019;-69